Ashgabat Airport
UTAA : now visible

Airfield :











YOU CAN JOIN US ON...

 
LOGIN :

Register | Disclaimer

   EN    FR    IT 

 









Legend :    VFR   Marginal VFR   IFR   Intensive IFR   Very Intensive IFR
Visi :
Ceiling :
>= 8 km
>= 3000ft
5 to 8 km
1000 to 3000 ft
1500m to 5 km
500 to 1000 ft
800 to 1500m
200 to 500 ft
< 800m
< 200 ft
Symbols :   Thunderstorms  Fog  Heavy snow  Heavy precipitations  Wind > 20 kt






- Airport Elevation : 692 ft
- IATA code : ASB


UTAA - Ashgabat

CURRENT METAR :
  • 241700Z 16004KT 6000 SCT033 03/01 Q1025 R88/70D NOSIG

EXPIRED METARs :
  • 241600Z 15008KT 7000 SCT049 04/01 Q1025 R88/70D NOSIG
  • 241500Z 15006KT 8000 BKN033 05/02 Q1025 R88/CLRD70 NOSIG

TAF TAF UTAA
Valid from the 24 at 18:00 until the 25 at 18:00 UTC


241640Z 2418/2518 14014KT 3000 BR BKN008 SCT030CB
TEMPO 2422/2505 08012KT 1000 BR BKN003
BECMG 2505/2507 10016KT 6000 NSW BKN020
UTAA FIR / Asia



MET'MAP, your aeronautical weather chart ! - Copyright ORBIFLY December 2007 - Disclaimer

ORBIFLY MET'MAP TEAM :

Programming & Development : Alexandra Zaïnal
Concept & original design : Baudouin d'Aumeries
Assistance for programming : Marc-Olivier Méhu
Technical & hardware support : Manuel Goepfert

Contact : metmap@orbifly.com




SOURCES & CREDITS :

   NOAA       Earth
Advisory